Time;durP1;ratioP1;P1;durP2;ratioP2;P2;SDS_P1;SDS_P2;PMS_P1;PMS_P2;Temp;Humidity;BMP_temperature;BMP_pressure;BME280_temperature;BME280_humidity;BME280_pressure;Samples;Min_cycle;Max_cycle;Signal;HPM_P1;HPM_P2
2022/04/26 03:38:18;;;;;;;1.80;1.17;;;;;;;18.51;38.16;101488.28;16136235;19;130520;-49
2022/04/26 03:43:40;;;;;;;4.53;1.05;;;;;;;18.50;37.83;101490.22;16136720;19;129241;-44
2022/04/26 03:49:02;;;;;;;1.50;1.20;;;;;;;18.50;38.03;101492.97;16131399;19;130172;-48
2022/04/26 03:54:24;;;;;;;2.42;1.02;;;;;;;18.49;37.70;101507.03;16135662;19;129136;-50
2022/04/26 03:59:46;;;;;;;1.85;1.00;;;;;;;18.48;37.89;101506.22;16133767;19;128987;-50
2022/04/26 04:05:08;;;;;;;2.22;1.10;;;;;;;18.48;38.04;101494.25;16141275;19;130200;-46
2022/04/26 04:10:30;;;;;;;3.75;0.90;;;;;;;18.46;37.44;101503.66;16136213;19;129725;-46
2022/04/26 04:15:51;;;;;;;2.08;1.00;;;;;;;18.47;37.72;101507.28;16131813;19;130580;-45
2022/04/26 04:21:13;;;;;;;1.50;1.25;;;;;;;18.45;37.30;101518.63;16129306;19;129719;-47
2022/04/26 04:26:35;;;;;;;1.42;1.00;;;;;;;18.43;37.43;101529.06;16142495;19;129214;-44
2022/04/26 04:31:57;;;;;;;3.35;0.93;;;;;;;18.42;37.60;101535.69;16165891;19;129574;-47
2022/04/26 04:37:18;;;;;;;1.67;1.02;;;;;;;18.40;37.46;101543.38;16163711;19;129666;-47
2022/04/26 04:42:40;;;;;;;2.50;1.00;;;;;;;18.39;37.12;101550.00;16153160;19;130367;-45
2022/04/26 04:48:05;;;;;;;2.35;1.20;;;;;;;18.40;37.03;101554.47;16162185;19;129974;-48
2022/04/26 04:53:27;;;;;;;1.58;1.05;;;;;;;18.39;37.09;101551.91;16161134;19;130177;-44
2022/04/26 04:58:49;;;;;;;3.83;1.00;;;;;;;18.36;36.94;101558.72;16158614;19;130419;-50
2022/04/26 05:04:11;;;;;;;1.88;0.90;;;;;;;18.35;37.14;101565.34;16161213;19;129507;-46
2022/04/26 05:09:33;;;;;;;1.23;0.77;;;;;;;18.35;37.16;101568.09;16161547;19;129409;-48
2022/04/26 05:14:55;;;;;;;5.03;1.05;;;;;;;18.35;37.06;101581.94;16155635;19;129490;-48
2022/04/26 05:20:17;;;;;;;3.45;0.90;;;;;;;18.35;36.93;101583.91;16156984;19;129636;-49
2022/04/26 05:25:39;;;;;;;4.93;0.98;;;;;;;18.38;37.18;101581.50;16159595;19;129595;-46
2022/04/26 05:31:00;;;;;;;3.53;1.20;;;;;;;18.41;36.90;101588.53;16159515;19;131565;-44
2022/04/26 05:36:22;;;;;;;2.80;1.00;;;;;;;18.38;37.27;101584.28;16160944;19;129547;-46
2022/04/26 05:41:44;;;;;;;4.95;1.35;;;;;;;18.43;37.56;101597.47;16139945;19;129625;-46
2022/04/26 05:47:07;;;;;;;2.97;1.20;;;;;;;18.48;36.81;101596.78;16145736;19;130768;-51
2022/04/26 05:52:29;;;;;;;3.60;1.17;;;;;;;18.45;36.94;101596.19;16139699;19;129343;-51
2022/04/26 05:57:50;;;;;;;2.92;1.20;;;;;;;18.43;36.58;101601.09;16138300;19;129288;-46
2022/04/26 06:03:12;;;;;;;1.88;1.15;;;;;;;18.41;36.49;101605.16;16137253;19;129474;-48
2022/04/26 06:08:34;;;;;;;3.30;1.08;;;;;;;18.38;36.65;101611.97;16146951;19;130064;-47
2022/04/26 06:13:56;;;;;;;3.33;1.15;;;;;;;18.38;36.34;101619.47;16140886;19;129629;-46
2022/04/26 06:19:17;;;;;;;2.63;1.10;;;;;;;18.35;35.97;101623.50;16141174;19;130190;-50
2022/04/26 06:24:39;;;;;;;2.13;1.10;;;;;;;18.33;36.43;101625.69;16138903;19;130227;-46
2022/04/26 06:30:01;;;;;;;1.98;1.10;;;;;;;18.32;36.12;101629.53;16144108;19;129450;-48
2022/04/26 06:35:23;;;;;;;5.63;1.20;;;;;;;18.30;35.85;101632.50;16133396;19;129305;-46
2022/04/26 06:40:48;;;;;;;2.63;1.55;;;;;;;18.28;36.13;101637.41;16130638;19;129606;-47
2022/04/26 06:46:10;;;;;;;3.08;1.10;;;;;;;18.28;35.64;101644.91;16129361;19;129854;-47
2022/04/26 06:51:37;;;;;;;4.15;1.45;;;;;;;18.27;35.58;101657.03;16134641;19;129560;-49
2022/04/26 06:56:59;;;;;;;3.22;1.20;;;;;;;18.25;35.37;101659.19;16135832;19;132572;-47
2022/04/26 07:02:22;;;;;;;12.25;1.50;;;;;;;18.22;35.39;101667.94;16134636;19;129646;-49
2022/04/26 07:07:44;;;;;;;20.77;2.67;;;;;;;18.23;35.43;101661.31;16138986;19;130703;-48
2022/04/26 07:13:05;;;;;;;8.48;1.98;;;;;;;18.24;35.55;101669.44;16133153;19;129091;-47
2022/04/26 07:18:27;;;;;;;7.00;1.42;;;;;;;18.25;35.73;101668.38;16138333;19;129356;-45
2022/04/26 07:23:49;;;;;;;3.55;1.27;;;;;;;18.27;35.74;101670.91;16133236;19;129458;-50
2022/04/26 07:29:11;;;;;;;8.90;1.60;;;;;;;18.27;35.35;101668.13;16139870;19;129424;-46
2022/04/26 07:34:33;;;;;;;5.78;1.67;;;;;;;18.31;35.44;101683.22;16140158;19;130532;-48
2022/04/26 07:39:56;;;;;;;6.43;1.40;;;;;;;18.36;35.27;101688.91;16137507;19;129734;-46
2022/04/26 07:45:17;;;;;;;6.60;1.50;;;;;;;18.44;36.07;101690.59;16137139;19;129091;-50
2022/04/26 07:50:39;;;;;;;9.30;1.60;;;;;;;18.53;36.19;101685.63;16132857;19;129716;-45
2022/04/26 07:56:01;;;;;;;6.00;1.73;;;;;;;18.60;36.20;101695.56;16138385;19;129237;-48
2022/04/26 08:01:23;;;;;;;7.72;1.88;;;;;;;18.65;35.63;101705.97;16132974;19;128946;-45
2022/04/26 08:06:45;;;;;;;7.65;1.70;;;;;;;18.68;35.60;101705.53;16139373;19;129588;-46
2022/04/26 08:12:07;;;;;;;4.18;1.40;;;;;;;18.70;35.51;101719.16;16135969;19;129720;-44
2022/04/26 08:17:29;;;;;;;3.85;1.77;;;;;;;18.74;35.01;101725.94;16126862;19;131715;-47
2022/04/26 08:22:51;;;;;;;3.15;1.50;;;;;;;18.74;35.11;101729.53;16127682;19;130643;-49
2022/04/26 08:28:13;;;;;;;2.50;1.10;;;;;;;18.81;34.63;101732.25;16127564;19;129774;-50
2022/04/26 08:33:35;;;;;;;3.28;1.27;;;;;;;18.85;34.32;101743.72;16132093;19;129337;-50
2022/04/26 08:38:56;;;;;;;3.65;1.60;;;;;;;18.88;34.57;101743.28;16136119;19;129230;-50
2022/04/26 08:44:18;;;;;;;1.70;1.00;;;;;;;18.92;34.16;101750.91;16137057;19;129231;-51
2022/04/26 08:55:20;;;;;;;3.33;1.42;;;;;;;18.99;33.81;101756.41;16131071;19;129181;-50
2022/04/26 09:01:23;;;;;;;4.45;1.65;;;;;;;19.02;33.16;101771.72;16128712;19;131184;-46
2022/04/26 09:06:45;;;;;;;9.68;1.58;;;;;;;19.06;33.72;101773.84;16133587;19;129331;-52
2022/04/26 09:12:11;;;;;;;15.38;2.25;;;;;;;19.15;33.57;101776.31;16131371;19;130118;-52
2022/04/26 09:17:32;;;;;;;16.50;1.92;;;;;;;19.15;33.95;101776.31;16142303;19;129818;-47
2022/04/26 09:22:59;;;;;;;10.45;1.45;;;;;;;19.18;34.09;101781.41;16144778;19;130226;-48
2022/04/26 09:28:29;;;;;;;13.90;1.98;;;;;;;19.22;33.68;101771.56;16146577;19;130038;-46
2022/04/26 09:34:04;;;;;;;47.40;3.42;;;;;;;19.24;33.96;101788.81;16144640;19;129363;-44
2022/04/26 09:39:26;;;;;;;18.60;2.42;;;;;;;19.26;33.60;101786.66;16135885;19;130062;-45
2022/04/26 09:45:10;;;;;;;15.80;2.13;;;;;;;19.22;33.66;101779.88;16139751;19;129313;-44
2022/04/26 09:50:33;;;;;;;8.68;1.55;;;;;;;19.15;33.30;101787.41;16141520;19;130053;-45
2022/04/26 09:55:59;;;;;;;9.30;2.35;;;;;;;19.07;33.19;101792.16;16143062;19;129777;-44
2022/04/26 10:01:21;;;;;;;14.13;1.98;;;;;;;19.04;33.19;101795.41;16141287;19;128902;-47
2022/04/26 10:06:44;;;;;;;5.25;1.42;;;;;;;19.02;32.80;101792.00;16144343;19;132015;-44
2022/04/26 10:12:06;;;;;;;4.30;1.50;;;;;;;18.98;32.95;101796.28;16141838;19;130009;-44
2022/04/26 10:17:32;;;;;;;4.43;1.25;;;;;;;18.94;32.69;101799.75;16137630;19;130601;-50
2022/04/26 10:22:57;;;;;;;7.60;1.67;;;;;;;18.89;32.84;101801.28;16134473;19;129382;-48
2022/04/26 10:28:21;;;;;;;6.72;1.52;;;;;;;18.94;33.00;101808.94;16132098;19;130074;-47
2022/04/26 10:33:47;;;;;;;6.40;1.42;;;;;;;18.97;32.85;101811.22;16140437;19;129772;-46
2022/04/26 10:39:09;;;;;;;7.93;1.50;;;;;;;18.95;32.75;101818.94;16140449;19;129338;-46
2022/04/26 10:44:37;;;;;;;4.70;1.20;;;;;;;18.93;32.67;101807.22;16138008;19;129560;-46
2022/04/26 10:49:59;;;;;;;2.88;1.30;;;;;;;18.95;32.43;101818.09;16144133;19;129310;-49
2022/04/26 10:55:26;;;;;;;4.93;1.60;;;;;;;18.96;32.12;101820.63;16138183;19;129546;-47
2022/04/26 11:00:47;;;;;;;4.30;1.30;;;;;;;18.94;32.38;101825.56;16140847;19;129535;-44
2022/04/26 11:06:09;;;;;;;6.93;1.60;;;;;;;18.94;32.07;101822.81;16142293;19;129338;-46
2022/04/26 11:11:49;;;;;;;3.35;1.15;;;;;;;18.97;32.07;101829.81;16136752;19;129689;-50
2022/04/26 11:17:17;;;;;;;2.60;1.20;;;;;;;18.91;32.03;101842.66;16138460;19;129239;-48
2022/04/26 11:22:51;;;;;;;2.47;1.30;;;;;;;18.91;31.67;101842.66;16136739;19;129433;-47
2022/04/26 11:28:17;;;;;;;2.08;1.13;;;;;;;18.87;31.74;101846.94;16140639;19;132180;-50
2022/04/26 11:33:49;;;;;;;4.70;1.83;;;;;;;18.87;31.44;101852.47;16138297;19;129416;-45
2022/04/26 11:39:11;;;;;;;6.82;2.17;;;;;;;18.87;31.52;101849.72;16136553;19;129092;-46
2022/04/26 11:44:35;;;;;;;4.03;1.80;;;;;;;18.89;31.44;101850.34;16135321;19;128808;-46
2022/04/26 11:50:06;;;;;;;4.88;1.90;;;;;;;;;;16140700;19;129146;-49
2022/04/26 11:55:34;;;;;;;5.82;1.58;;;;;;;18.91;31.48;101864.84;16139595;19;128902;-46
2022/04/26 12:01:02;;;;;;;3.08;1.40;;;;;;;;;;16136642;19;129529;-45
2022/04/26 12:06:36;;;;;;;4.43;1.33;;;;;;;18.90;30.79;101866.75;16138894;19;128995;-48
2022/04/26 12:12:02;;;;;;;5.00;1.38;;;;;;;18.89;30.88;101869.75;16135764;19;129958;-47
2022/04/26 12:17:29;;;;;;;5.97;1.20;;;;;;;18.88;31.13;101881.91;16137929;19;129306;-44
2022/04/26 12:22:51;;;;;;;5.35;1.38;;;;;;;18.84;30.80;101864.88;16134927;19;129127;-45
2022/04/26 12:28:13;;;;;;;2.70;1.33;;;;;;;18.86;31.01;101861.88;16131046;19;129932;-47
2022/04/26 12:33:36;;;;;;;3.53;1.40;;;;;;;18.87;30.76;101863.56;16126976;19;129510;-48
2022/04/26 12:39:00;;;;;;;1.98;1.10;;;;;;;18.86;31.04;101850.78;16129885;19;129705;-46
2022/04/26 12:44:23;;;;;;;3.35;1.23;;;;;;;18.87;30.83;101855.25;16130849;19;129807;-47
2022/04/26 12:55:41;;;;;;;2.83;1.45;;;;;;;18.84;30.61;101859.34;16144901;19;129488;-45
2022/04/26 13:01:04;;;;;;;4.90;1.20;;;;;;;18.83;30.41;101863.19;16142829;19;129717;-44
2022/04/26 13:06:26;;;;;;;4.72;1.33;;;;;;;18.82;30.83;101866.19;16150566;19;129449;-48
2022/04/26 13:12:09;;;;;;;3.72;1.40;;;;;;;18.84;30.74;101864.03;16142616;19;129555;-49
2022/04/26 13:17:31;;;;;;;3.75;1.00;;;;;;;18.82;30.35;101860.66;16145575;19;129924;-47
2022/04/26 13:22:52;;;;;;;2.40;1.25;;;;;;;18.83;30.58;101856.81;16140717;19;129222;-49
2022/04/26 13:28:14;;;;;;;3.97;1.27;;;;;;;18.81;30.00;101857.00;16138539;19;130294;-46
2022/04/26 13:33:36;;;;;;;2.30;1.10;;;;;;;18.80;30.40;101860.03;16142993;19;130514;-46
2022/04/26 13:38:58;;;;;;;1.70;1.10;;;;;;;18.82;30.47;101855.09;16146268;19;128997;-47
2022/04/26 13:44:20;;;;;;;4.13;1.55;;;;;;;18.80;30.11;101863.63;16140138;19;129397;-44
2022/04/26 13:49:42;;;;;;;7.18;1.40;;;;;;;18.81;29.78;101870.03;16146281;19;129310;-46
2022/04/26 13:55:04;;;;;;;2.33;1.20;;;;;;;18.82;29.63;101866.19;16144290;19;129549;-46
2022/04/26 14:00:26;;;;;;;1.98;1.42;;;;;;;18.81;30.16;101870.88;16143738;19;131394;-48
2022/04/26 14:05:48;;;;;;;2.00;1.27;;;;;;;18.83;30.01;101862.34;16146461;19;132085;-46
2022/04/26 14:11:10;;;;;;;2.75;1.27;;;;;;;18.84;29.61;101866.78;16140650;19;129311;-47
2022/04/26 14:22:12;;;;;;;1.23;0.90;;;;;;;18.84;29.56;101848.25;16144182;19;131346;-46
2022/04/26 14:27:35;;;;;;;2.83;1.30;;;;;;;18.84;29.82;101859.34;16140772;19;128983;-45
2022/04/26 14:32:57;;;;;;;4.75;1.30;;;;;;;18.86;29.53;101864.66;16144370;19;129259;-48
2022/04/26 14:38:20;;;;;;;3.53;1.17;;;;;;;18.85;29.65;101854.63;16144875;19;129702;-47
2022/04/26 14:43:41;;;;;;;1.88;0.80;;;;;;;18.85;29.63;101866.59;16142431;19;129715;-48
2022/04/26 14:49:04;;;;;;;1.85;1.02;;;;;;;18.86;29.46;101865.50;16140951;19;129536;-45
2022/04/26 14:54:26;;;;;;;3.97;1.05;;;;;;;18.85;29.21;101861.03;16143605;19;130351;-49
2022/04/26 14:59:48;;;;;;;3.10;1.08;;;;;;;18.85;29.68;101865.72;16143246;19;129442;-49
2022/04/26 15:05:12;;;;;;;1.42;0.95;;;;;;;18.82;29.19;101863.41;16136753;19;129531;-47
2022/04/26 15:10:34;;;;;;;2.83;1.35;;;;;;;18.82;29.15;101868.97;16141364;19;129858;-47
2022/04/26 15:21:38;;;;;;;1.80;1.30;;;;;;;18.78;29.21;101863.00;16133482;19;131394;-44
2022/04/26 15:26:59;;;;;;;1.83;1.17;;;;;;;18.79;29.41;101867.47;16138719;19;128947;-47
2022/04/26 15:32:23;;;;;;;2.58;1.20;;;;;;;18.82;29.16;101868.97;16141295;19;131011;-44
2022/04/26 15:37:45;;;;;;;2.30;1.15;;;;;;;18.84;29.25;101869.56;16138154;19;129785;-46
2022/04/26 15:43:07;;;;;;;2.53;1.08;;;;;;;18.86;29.53;101875.75;16136143;19;129371;-45
2022/04/26 15:48:29;;;;;;;1.85;1.05;;;;;;;18.83;29.59;101873.44;16140528;19;129297;-49
2022/04/26 15:53:51;;;;;;;3.95;1.27;;;;;;;18.83;29.57;101878.97;16143082;19;129450;-49
2022/04/26 15:59:13;;;;;;;2.47;1.10;;;;;;;18.83;29.99;101876.22;16139896;19;129117;-47
2022/04/26 16:04:35;;;;;;;3.70;1.63;;;;;;;18.86;30.05;101882.16;16137014;19;129646;-45
2022/04/26 16:21:22;;;;;;;13.65;4.82;;;;;;;18.86;31.33;101886.81;16135288;19;129307;-46
2022/04/26 16:26:44;;;;;;;16.83;7.13;;;;;;;18.85;30.85;101893.44;16136381;19;130809;-51
2022/04/26 16:32:05;;;;;;;12.18;5.35;;;;;;;18.84;30.75;101900.06;16133907;19;130311;-46
2022/04/26 16:37:27;;;;;;;15.00;4.60;;;;;;;18.79;30.79;101894.34;16132758;19;130818;-46
2022/04/26 16:42:50;;;;;;;16.35;4.63;;;;;;;18.75;30.39;101916.97;16132388;19;130457;-47
2022/04/26 16:48:11;;;;;;;8.60;3.50;;;;;;;18.72;30.50;101916.56;16133249;19;129272;-45
2022/04/26 16:53:33;;;;;;;9.60;3.10;;;;;;;18.68;30.18;101926.41;16134534;19;130918;-44
2022/04/26 16:58:55;;;;;;;4.45;2.83;;;;;;;18.66;30.35;101928.53;16131333;19;130671;-49
2022/04/26 17:04:17;;;;;;;13.85;3.42;;;;;;;18.74;30.33;101934.69;16125122;19;132508;-50
2022/04/26 17:09:39;;;;;;;8.93;3.00;;;;;;;19.02;30.69;101933.44;16125347;19;129466;-45
2022/04/26 17:15:01;;;;;;;18.20;2.75;;;;;;;19.33;30.39;101923.38;16124082;19;129560;-47
2022/04/26 17:20:23;;;;;;;10.85;2.60;;;;;;;19.70;29.85;101933.72;16128149;19;129339;-49
2022/04/26 17:25:45;;;;;;;14.00;2.50;;;;;;;20.06;29.90;101943.19;16124809;19;131653;-45
2022/04/26 17:31:07;;;;;;;13.15;2.33;;;;;;;20.37;29.77;101954.38;16129291;19;131060;-48
2022/04/26 17:36:30;;;;;;;13.80;2.40;;;;;;;20.57;29.23;101956.91;16139164;19;130521;-46
2022/04/26 17:41:55;;;;;;;10.05;1.90;;;;;;;20.73;29.14;101964.59;16146629;19;130243;-47
2022/04/26 17:47:18;;;;;;;7.05;2.28;;;;;;;20.81;28.74;101966.19;16145370;19;129717;-49
2022/04/26 17:58:28;;;;;;;4.07;2.00;;;;;;;20.68;29.25;101974.69;16145297;19;129401;-46
2022/04/26 18:03:50;;;;;;;5.50;1.88;;;;;;;20.57;29.76;101982.75;16141690;19;129481;-46
2022/04/26 18:09:12;;;;;;;7.47;1.67;;;;;;;20.46;29.94;101991.88;16144886;19;130606;-51
2022/04/26 18:14:34;;;;;;;11.98;2.22;;;;;;;20.37;29.75;101996.91;16137368;19;129437;-45
2022/04/26 18:19:57;;;;;;;7.30;2.10;;;;;;;20.25;29.76;102007.94;16139711;19;130241;-51
2022/04/26 18:26:10;;;;;;;6.25;1.80;;;;;;;20.16;29.80;102009.34;16134707;19;129737;-49
2022/04/26 18:31:01;;;;;;;6.15;1.63;;;;;;;20.18;29.96;102009.97;16134740;19;130234;-48
2022/04/26 18:36:23;;;;;;;6.78;1.80;;;;;;;20.38;29.66;102028.34;16135400;19;129918;-53
2022/04/26 18:41:44;;;;;;;8.00;1.60;;;;;;;20.63;29.68;102024.63;16136517;19;130217;-47
2022/04/26 18:47:06;;;;;;;4.43;1.20;;;;;;;20.88;29.12;102038.44;16133726;19;129559;-47
2022/04/26 18:52:28;;;;;;;6.10;1.80;;;;;;;21.09;28.87;102045.41;16130701;19;129819;-48
2022/04/26 18:57:50;;;;;;;3.42;1.20;;;;;;;21.27;28.70;102060.38;16132357;19;130586;-54
2022/04/26 19:03:18;;;;;;;4.90;1.33;;;;;;;21.42;29.05;102074.69;16138253;19;130315;-52
2022/04/26 19:08:40;;;;;;;2.25;1.13;;;;;;;21.57;28.81;102084.56;16140861;19;129588;-53
2022/04/26 19:14:02;;;;;;;15.25;1.35;;;;;;;21.67;28.90;102090.41;16137391;19;130080;-49
2022/04/26 19:19:24;;;;;;;17.67;1.40;;;;;;;21.74;29.80;102101.44;16134473;19;129846;-49
2022/04/26 19:24:46;;;;;;;7.78;1.65;;;;;;;21.80;30.25;102111.63;16127746;19;130450;-53
2022/04/26 19:30:08;;;;;;;17.92;1.88;;;;;;;21.82;30.78;102115.03;16136345;19;129695;-53
2022/04/26 19:35:30;;;;;;;20.45;2.08;;;;;;;21.90;31.97;102122.19;16130949;19;130479;-55
2022/04/26 19:40:52;;;;;;;16.27;1.65;;;;;;;22.01;32.51;102132.50;16132133;19;129725;-52
2022/04/26 19:46:17;;;;;;;5.75;1.50;;;;;;;22.11;33.25;102140.25;16127596;19;130362;-55
2022/04/26 19:51:41;;;;;;;12.83;1.53;;;;;;;22.18;33.33;102140.13;16130208;19;130601;-51
2022/04/26 19:57:05;;;;;;;10.57;1.85;;;;;;;22.25;33.69;102146.50;16129766;19;130332;-53
2022/04/26 20:02:27;;;;;;;11.05;1.60;;;;;;;22.33;33.72;102143.34;16126214;19;130150;-57
2022/04/26 20:07:49;;;;;;;8.13;1.75;;;;;;;22.40;34.66;102137.63;16130436;19;130575;-54
2022/04/26 20:13:10;;;;;;;4.95;1.20;;;;;;;22.47;34.66;102143.09;16128505;19;130538;-55
2022/04/26 20:18:32;;;;;;;4.78;1.10;;;;;;;22.51;35.14;102144.31;16123584;19;130527;-52
2022/04/26 20:23:54;;;;;;;7.95;1.08;;;;;;;22.55;35.72;102151.94;16118096;19;129406;-59
2022/04/26 20:34:56;;;;;;;10.18;1.42;;;;;;;22.53;35.88;102161.63;16121004;19;130269;-55
2022/04/26 20:40:18;;;;;;;14.75;1.73;;;;;;;22.47;36.03;102159.81;16117816;19;130411;-53
2022/04/26 20:45:40;;;;;;;6.32;1.38;;;;;;;22.33;36.17;102171.22;16124891;19;130455;-52
2022/04/26 20:51:01;;;;;;;9.63;1.30;;;;;;;22.17;36.28;102177.44;16124430;19;129179;-52
2022/04/26 20:56:23;;;;;;;12.73;1.45;;;;;;;21.98;36.47;102177.56;16125062;19;130217;-56
2022/04/26 21:01:45;;;;;;;5.82;1.42;;;;;;;21.77;37.05;102184.53;16121215;19;129980;-56
2022/04/26 21:07:08;;;;;;;5.80;1.55;;;;;;;21.59;37.09;102172.38;16122118;19;130203;-55
2022/04/26 21:13:22;;;;;;;6.43;1.25;;;;;;;21.44;37.28;102177.47;16140327;19;130652;-51
2022/04/26 21:18:11;;;;;;;9.93;1.27;;;;;;;21.28;37.49;102178.97;16139523;19;129324;-56
2022/04/26 21:23:33;;;;;;;2.90;1.17;;;;;;;21.15;37.35;102183.63;16140073;19;130552;-53
2022/04/26 21:28:54;;;;;;;5.82;1.08;;;;;;;21.03;37.52;102193.84;16143163;19;130635;-54
2022/04/26 21:34:16;;;;;;;3.20;1.45;;;;;;;20.88;37.59;102188.63;16138028;19;130608;-54
2022/04/26 21:39:38;;;;;;;3.10;1.15;;;;;;;20.75;37.62;102190.47;16137125;19;129533;-52
2022/04/26 21:45:00;;;;;;;2.50;1.20;;;;;;;20.68;37.22;102197.16;16132436;19;129625;-55
2022/04/26 21:56:04;;;;;;;4.55;1.15;;;;;;;20.50;37.87;102200.75;16139489;19;129231;-54
2022/04/26 22:01:27;;;;;;;2.42;1.40;;;;;;;20.40;38.10;102204.91;16143574;19;129374;-55
2022/04/26 22:06:49;;;;;;;3.95;1.30;;;;;;;20.33;38.35;102208.81;16138602;19;129847;-55
2022/04/26 22:12:10;;;;;;;2.30;1.10;;;;;;;20.26;38.21;102220.84;16136305;19;129164;-57
2022/04/26 22:17:32;;;;;;;3.95;1.20;;;;;;;20.21;38.36;102223.44;16135511;19;129466;-54
2022/04/26 22:22:55;;;;;;;2.83;1.20;;;;;;;20.18;38.07;102234.16;16126930;19;130046;-54
2022/04/26 22:28:16;;;;;;;2.35;1.17;;;;;;;20.09;38.33;102239.13;16136965;19;130741;-56
2022/04/26 22:33:38;;;;;;;3.38;1.50;;;;;;;20.01;37.88;102244.97;16138717;19;130336;-52
2022/04/26 22:39:00;;;;;;;5.88;1.60;;;;;;;19.96;37.71;102242.84;16137935;19;129785;-49
2022/04/26 22:44:22;;;;;;;5.20;1.30;;;;;;;19.95;38.15;102241.97;16135709;19;130344;-52
2022/04/26 22:49:43;;;;;;;3.17;1.48;;;;;;;19.89;37.88;102248.44;16133261;19;130584;-53
2022/04/26 22:55:05;;;;;;;3.95;1.40;;;;;;;19.87;38.05;102258.91;16132451;19;131632;-55
2022/04/26 23:00:27;;;;;;;2.40;1.40;;;;;;;19.88;38.03;102257.84;16129234;19;130239;-50
2022/04/26 23:05:49;;;;;;;3.38;1.35;;;;;;;19.88;37.81;102262.53;16133716;19;129756;-55
2022/04/26 23:11:12;;;;;;;4.30;1.20;;;;;;;19.83;37.70;102263.19;16133413;19;130116;-53
2022/04/26 23:16:37;;;;;;;2.50;1.50;;;;;;;19.78;37.66;102277.75;16133636;19;129314;-52
2022/04/26 23:22:00;;;;;;;1.83;1.15;;;;;;;19.75;37.71;102274.56;16139186;19;129739;-60
2022/04/26 23:27:21;;;;;;;6.07;1.60;;;;;;;19.67;37.99;102276.53;16134549;19;129274;-55
2022/04/26 23:32:43;;;;;;;2.05;1.00;;;;;;;19.65;38.06;102284.22;16128172;19;129810;-53
2022/04/26 23:38:10;;;;;;;2.97;1.23;;;;;;;19.60;38.23;102283.19;16131843;19;128997;-55
2022/04/26 23:43:32;;;;;;;2.85;1.40;;;;;;;19.56;38.29;102288.31;16129352;19;129630;-53
2022/04/26 23:48:54;;;;;;;2.83;1.20;;;;;;;19.52;38.25;102281.50;16129918;19;130917;-53
2022/04/26 23:54:15;;;;;;;3.17;1.10;;;;;;;19.50;38.19;102281.72;16125392;19;130474;-51
2022/04/26 23:59:37;;;;;;;5.55;1.50;;;;;;;19.48;38.25;102297.75;16130511;19;129600;-53
